KMGE/MGE METAR and TAF weather

Enter ICAO airport designator
Station Type Date Time Source
KMGE METAR 2022/05/26 03:56 UTC NOAA

KMGE 260356Z AUTO 10009KT 10SM OVC008 20/18 A3011 RMK AO2 SLP191 T02000183 $


Station Type Date Time Source
KMGE Decoded METAR 2022/05/26 03:56 UTC NOAA

Marietta / Dobbins Air Force Base, GA, United States (KMGE) 33-55N 084-31W 326M
May 25, 2022 - 11:56 PM EDT / 2022.05.26 0356 UTC
Wind: from the E (100 degrees) at 10 MPH (9 KT):0
Visibility: 10 mile(s):0
Sky conditions: overcast
Temperature: 68.0 F (20.0 C)
Dew Point: 64.9 F (18.3 C)
Relative Humidity: 89%
Pressure (altimeter): 30.11 in. Hg (1019 hPa)
ob: KMGE 260356Z AUTO 10009KT 10SM OVC008 20/18 A3011 RMK AO2 SLP191 T02000183
cycle: 4

Station Type Date Time Source
KMGE TAF 2022/05/26 01:37 UTC NOAA

TAF
AMD KMGE 260125Z 2601/2703 10009KT 8000 BR VCSH BKN007 BKN055 OVC200 QNH3007INS
BECMG 2603/2604 14006KT 4800 BR OVC004 QNH3003INS
BECMG 2614/2615 15010G18KT 9999 VCSH OVC010 QNH2996INS
BECMG 2618/2619 17015G25KT 4800 TSRAGR BKN018CB OVC120 QNH2989INS
BECMG 2622/2623 19010G18KT 9999 VCSH BKN020 OVC200 QNH2987INS
BECMG 2701/2702 16010G18KT 8000 -TSRA BKN012CB OVC050 QNH2988INS TX24/2621Z TN18/2612Z LAST NO
AMDS AFT 2603 NEXT 2610

Example: see airport list